South Queensferry, United Kingdom
Current Conditions -  °F | °C
As of 8:50 PM on Saturday 25 Oct 2014 (Local Time) from EGPH Reporting Station
Few Clouds Few Clouds  
Wind Chill: 52°   Ceiling: Unl
Heat Index: 52°   Visibility: 6mi
Dew Point: 45°   Wind: 25mph
Humidity: 76%   Direction: 230°SW
Pressure: 29.68"   Gusts: NA
Location:  55.99°N, 3.39°W
Report Text: EGPH 251950Z 23022KT 9999 FEW025 11/07 Q1005
Loading
Personal Weather Stations






























Interactive Weather Map New forecast layout! Learn more

10-Day Weather Forecast

Advertisements
Track Severe Weather on mobile